createdAt,value
2023-01-03T00:02:07.648Z,52.40
2023-01-03T00:04:34.620Z,53.98
2023-01-03T00:07:01.461Z,53.22
2023-01-03T00:09:28.543Z,51.42
2023-01-03T00:12:14.211Z,51.34
2023-01-03T00:14:42.910Z,50.80
2023-01-03T00:17:11.839Z,51.51
2023-01-03T00:19:43.200Z,51.63
2023-01-03T00:22:11.765Z,51.98
2023-01-03T00:24:38.945Z,52.18
2023-01-03T00:27:05.985Z,52.09
2023-01-03T00:29:33.153Z,54.31
2023-01-03T00:32:00.013Z,52.96
2023-01-03T00:34:27.062Z,53.86
2023-01-03T00:36:54.160Z,54.03
2023-01-03T00:39:21.552Z,54.22
2023-01-03T00:41:48.471Z,54.54
2023-01-03T00:44:17.085Z,54.63
2023-01-03T00:46:43.889Z,55.43
2023-01-03T00:49:11.152Z,56.36
2023-01-03T00:51:39.919Z,56.04
2023-01-03T00:54:08.491Z,54.63
2023-01-03T00:56:41.226Z,55.33
2023-01-03T00:59:08.411Z,54.87
2023-01-03T01:01:46.769Z,52.67
2023-01-03T01:04:22.949Z,52.58
2023-01-03T01:07:01.333Z,52.62
2023-01-03T01:09:37.152Z,51.67
2023-01-03T01:12:05.819Z,51.74
2023-01-03T01:14:33.702Z,50.63
2023-01-03T01:17:04.361Z,51.41
2023-01-03T01:19:38.038Z,52.64
2023-01-03T01:22:05.392Z,52.44
2023-01-03T01:24:32.441Z,51.46
2023-01-03T01:26:59.636Z,51.21
2023-01-03T01:29:26.753Z,51.31
2023-01-03T01:31:53.615Z,50.89
2023-01-03T01:34:20.435Z,50.89
2023-01-03T01:36:48.394Z,51.29
2023-01-03T01:39:24.605Z,52.12
2023-01-03T01:42:20.420Z,50.98
2023-01-03T01:45:01.527Z,51.60
2023-01-03T01:47:44.410Z,49.62
2023-01-03T01:50:35.578Z,51.15
2023-01-03T01:53:15.747Z,50.12
2023-01-03T01:55:43.329Z,50.51
2023-01-03T01:58:11.120Z,50.50
2023-01-03T02:00:39.769Z,50.66
2023-01-03T02:03:07.373Z,49.86
2023-01-03T02:05:37.002Z,50.81
2023-01-03T02:08:03.975Z,50.48
2023-01-03T02:10:39.709Z,50.26
2023-01-03T02:13:22.939Z,50.23
2023-01-03T02:16:23.190Z,50.11
2023-01-03T02:19:25.241Z,50.58
2023-01-03T02:22:25.728Z,49.74
2023-01-03T02:25:23.480Z,49.72
2023-01-03T02:28:25.158Z,49.89
2023-01-03T02:30:58.530Z,50.04
2023-01-03T02:33:47.711Z,50.12
2023-01-03T02:36:42.877Z,50.27
2023-01-03T02:39:40.972Z,49.88
2023-01-03T02:42:32.392Z,49.08
2023-01-03T02:45:05.610Z,49.74
2023-01-03T02:47:56.943Z,49.60
2023-01-03T02:50:26.531Z,48.64
2023-01-03T02:52:57.857Z,49.02
2023-01-03T02:55:28.475Z,51.71
2023-01-03T02:58:02.087Z,49.29
2023-01-03T03:00:33.152Z,49.26
2023-01-03T03:03:06.440Z,49.87
2023-01-03T03:05:40.156Z,49.61
2023-01-03T03:08:07.368Z,49.89
2023-01-03T03:10:53.724Z,49.87
2023-01-03T03:13:36.453Z,50.20
2023-01-03T03:16:13.006Z,50.64
2023-01-03T03:18:50.720Z,49.72
2023-01-03T03:21:38.939Z,49.78
2023-01-03T03:24:32.169Z,52.12
2023-01-03T03:27:21.311Z,52.74
2023-01-03T03:29:48.503Z,49.57
2023-01-03T03:32:16.251Z,48.23
2023-01-03T03:34:45.452Z,47.60
2023-01-03T03:37:18.313Z,47.17
2023-01-03T03:40:16.029Z,47.30
2023-01-03T03:43:01.087Z,47.33
2023-01-03T03:45:45.053Z,48.63
2023-01-03T03:48:18.838Z,49.07
2023-01-03T03:50:54.392Z,47.42
2023-01-03T03:53:25.387Z,48.03
2023-01-03T03:56:10.739Z,47.71
2023-01-03T03:58:43.440Z,48.54
2023-01-03T04:01:16.341Z,48.43
2023-01-03T04:03:47.248Z,47.83
2023-01-03T04:06:22.559Z,49.33
2023-01-03T04:08:50.478Z,49.65
2023-01-03T04:11:17.587Z,49.01
2023-01-03T04:13:44.368Z,49.17
2023-01-03T04:16:11.475Z,48.43
2023-01-03T04:18:38.288Z,47.27
2023-01-03T04:21:05.097Z,48.71
2023-01-03T04:23:31.976Z,50.88
2023-01-03T04:25:58.671Z,51.11
2023-01-03T04:28:25.361Z,51.24
2023-01-03T04:30:52.185Z,51.47
2023-01-03T04:33:18.936Z,50.30
2023-01-03T04:35:45.598Z,49.50
2023-01-03T04:38:13.310Z,50.37
2023-01-03T04:40:40.012Z,50.37
2023-01-03T04:43:25.288Z,50.76
2023-01-03T04:45:52.227Z,51.26
2023-01-03T04:48:19.124Z,49.86
2023-01-03T04:50:53.676Z,50.17
2023-01-03T04:53:21.547Z,50.28
2023-01-03T04:55:50.067Z,50.10
2023-01-03T04:58:17.084Z,50.19
2023-01-03T05:00:44.163Z,50.47
2023-01-03T05:03:11.209Z,50.73
2023-01-03T05:05:38.870Z,50.79
2023-01-03T05:08:10.956Z,51.71
2023-01-03T05:10:38.843Z,51.50
2023-01-03T05:13:05.556Z,51.58
2023-01-03T05:15:36.175Z,51.24
2023-01-03T05:18:04.088Z,51.36
2023-01-03T05:20:49.140Z,50.70
2023-01-03T05:23:36.362Z,50.77
2023-01-03T05:26:10.235Z,50.94
2023-01-03T05:28:37.233Z,50.72
2023-01-03T05:31:04.079Z,50.99
2023-01-03T05:33:30.848Z,50.74
2023-01-03T05:35:59.091Z,50.13
2023-01-03T05:38:25.845Z,49.83
2023-01-03T05:40:52.577Z,49.43
2023-01-03T05:43:20.107Z,48.59
2023-01-03T05:45:52.895Z,48.64
2023-01-03T05:48:21.541Z,49.34
2023-01-03T05:50:50.031Z,49.48
2023-01-03T05:53:17.132Z,49.67
2023-01-03T05:55:43.995Z,48.41
2023-01-03T05:58:12.676Z,49.08
2023-01-03T06:00:39.635Z,48.80
2023-01-03T06:03:06.859Z,48.33
2023-01-03T06:05:33.857Z,47.94
2023-01-03T06:08:02.211Z,47.25
2023-01-03T06:10:29.562Z,50.59
2023-01-03T06:12:57.195Z,50.63
2023-01-03T06:15:24.972Z,50.66
2023-01-03T06:18:00.065Z,50.56
2023-01-03T06:20:27.464Z,50.61
2023-01-03T06:22:54.963Z,51.55
2023-01-03T06:25:22.946Z,51.24
2023-01-03T06:27:49.666Z,49.41
2023-01-03T06:30:16.422Z,48.15
2023-01-03T06:32:44.390Z,48.05
2023-01-03T06:35:11.825Z,47.36
2023-01-03T06:37:38.909Z,47.40
2023-01-03T06:40:06.523Z,49.90
2023-01-03T06:42:40.137Z,47.72
2023-01-03T06:45:26.378Z,47.68
2023-01-03T06:48:11.635Z,50.01
2023-01-03T06:50:58.787Z,52.19
2023-01-03T06:53:29.048Z,52.21
2023-01-03T06:55:57.356Z,54.10
2023-01-03T06:58:24.729Z,54.73
2023-01-03T07:00:52.586Z,53.50
2023-01-03T07:03:19.314Z,53.56
2023-01-03T07:05:46.152Z,53.52
2023-01-03T07:08:12.918Z,53.14
2023-01-03T07:10:41.149Z,52.63
2023-01-03T07:13:26.285Z,52.95
2023-01-03T07:15:53.163Z,52.78
2023-01-03T07:18:21.013Z,52.24
2023-01-03T07:20:47.739Z,52.51
2023-01-03T07:23:14.561Z,52.46
2023-01-03T07:25:41.953Z,52.63
2023-01-03T07:28:13.398Z,52.21
2023-01-03T07:30:42.838Z,52.21
2023-01-03T07:33:11.633Z,53.78
2023-01-03T07:35:38.674Z,54.13
2023-01-03T07:38:06.041Z,52.93
2023-01-03T07:40:33.492Z,51.51
2023-01-03T07:43:18.578Z,48.71
2023-01-03T07:45:46.176Z,50.58
2023-01-03T07:48:13.402Z,52.58
2023-01-03T07:50:41.436Z,50.56
2023-01-03T07:53:08.931Z,50.62
2023-01-03T07:55:36.985Z,48.97
2023-01-03T07:58:03.881Z,49.10
2023-01-03T08:00:30.690Z,48.91
2023-01-03T08:02:57.456Z,50.12
2023-01-03T08:05:25.409Z,49.24
2023-01-03T08:07:53.095Z,49.84
2023-01-03T08:10:39.076Z,48.99
2023-01-03T08:13:18.851Z,48.56
2023-01-03T08:15:55.497Z,48.90
2023-01-03T08:18:27.426Z,48.56
2023-01-03T08:20:57.112Z,49.13
2023-01-03T08:23:24.916Z,49.25
2023-01-03T08:25:51.699Z,47.80
2023-01-03T08:28:18.759Z,50.18
2023-01-03T08:30:50.239Z,50.92
2023-01-03T08:33:19.257Z,50.34
2023-01-03T08:35:51.178Z,49.96
2023-01-03T08:38:25.197Z,49.13
2023-01-03T08:40:52.014Z,49.05
2023-01-03T08:43:19.180Z,48.43
2023-01-03T08:45:48.057Z,48.18
2023-01-03T08:48:16.752Z,47.39
2023-01-03T08:50:43.483Z,48.09
2023-01-03T08:53:10.991Z,48.64
2023-01-03T08:55:37.740Z,47.93
2023-01-03T08:58:04.554Z,48.05
2023-01-03T09:00:31.307Z,47.54
2023-01-03T09:03:00.281Z,47.66
2023-01-03T09:05:28.120Z,47.36
2023-01-03T09:07:55.503Z,46.92
2023-01-03T09:10:23.049Z,46.77
2023-01-03T09:12:50.202Z,47.36
2023-01-03T09:15:16.927Z,46.49
2023-01-03T09:17:45.363Z,46.46
2023-01-03T09:20:13.240Z,45.14
2023-01-03T09:22:40.209Z,46.12
2023-01-03T09:25:07.965Z,45.22
2023-01-03T09:27:34.818Z,44.74
2023-01-03T09:30:01.840Z,44.65
2023-01-03T09:32:28.759Z,44.32
2023-01-03T09:34:55.536Z,44.00
2023-01-03T09:37:22.398Z,43.49
2023-01-03T09:39:49.126Z,43.40
2023-01-03T09:42:43.604Z,42.89
2023-01-03T09:45:16.509Z,42.79
2023-01-03T09:47:44.841Z,41.92
2023-01-03T09:50:35.234Z,41.99
2023-01-03T09:53:37.523Z,42.58
2023-01-03T09:56:23.265Z,43.09
2023-01-03T09:59:17.678Z,42.27
2023-01-03T10:02:35.717Z,42.04
2023-01-03T10:05:17.634Z,42.35
2023-01-03T10:08:12.240Z,42.05
2023-01-03T10:11:02.102Z,41.90
2023-01-03T10:13:36.396Z,42.54
2023-01-03T10:16:31.079Z,42.15
2023-01-03T10:19:19.276Z,42.00
2023-01-03T10:22:19.200Z,42.10
2023-01-03T10:24:50.529Z,41.86
2023-01-03T10:27:25.255Z,41.88
2023-01-03T10:30:00.310Z,42.23
2023-01-03T10:32:45.554Z,42.39
2023-01-03T10:35:30.752Z,43.33
2023-01-03T10:37:58.353Z,43.42
2023-01-03T10:40:42.235Z,42.91
2023-01-03T10:43:16.464Z,43.20
2023-01-03T10:46:01.074Z,43.62
2023-01-03T10:48:52.923Z,42.38
2023-01-03T10:51:42.144Z,42.19
2023-01-03T10:54:23.242Z,42.93
2023-01-03T10:56:50.142Z,43.42
2023-01-03T10:59:21.666Z,44.28
2023-01-03T11:02:12.847Z,43.94
2023-01-03T11:04:39.868Z,43.78
2023-01-03T11:07:09.703Z,43.79
2023-01-03T11:09:57.982Z,43.19
2023-01-03T11:12:36.940Z,42.84
2023-01-03T11:15:18.886Z,43.61
2023-01-03T11:17:55.953Z,43.29
2023-01-03T11:20:49.406Z,43.03
2023-01-03T11:23:26.434Z,42.98
2023-01-03T11:26:16.513Z,42.32
2023-01-03T11:29:10.850Z,41.67
2023-01-03T11:31:49.266Z,42.88
2023-01-03T11:35:20.713Z,41.93
2023-01-03T11:37:51.085Z,42.04
2023-01-03T11:40:34.132Z,42.16
2023-01-03T11:43:13.092Z,41.55
2023-01-03T11:45:48.838Z,42.40
2023-01-03T11:48:34.852Z,41.66
2023-01-03T11:51:29.053Z,41.31
2023-01-03T11:53:59.935Z,40.72
2023-01-03T11:56:44.729Z,40.77
2023-01-03T11:59:36.564Z,39.42
2023-01-03T12:02:03.389Z,36.93
2023-01-03T12:04:55.673Z,35.79
2023-01-03T12:07:54.737Z,35.12
2023-01-03T12:10:31.931Z,33.35
2023-01-03T12:13:04.031Z,32.85
2023-01-03T12:16:10.046Z,31.02
2023-01-03T12:18:58.489Z,29.95
2023-01-03T12:21:42.756Z,29.80
2023-01-03T12:24:41.388Z,30.40
2023-01-03T12:27:35.694Z,29.94
2023-01-03T12:30:11.113Z,30.48
2023-01-03T12:32:49.777Z,30.27
2023-01-03T12:35:37.938Z,29.90
2023-01-03T12:38:06.285Z,29.24
2023-01-03T12:41:01.515Z,28.22
2023-01-03T12:43:55.874Z,28.26
2023-01-03T12:46:30.211Z,28.19
2023-01-03T12:49:05.446Z,26.16
2023-01-03T12:51:32.625Z,26.78
2023-01-03T12:54:17.867Z,25.71
2023-01-03T12:57:13.644Z,25.75
2023-01-03T12:59:55.807Z,26.11
2023-01-03T13:02:33.923Z,25.84
2023-01-03T13:05:19.181Z,25.24
2023-01-03T13:08:04.881Z,26.69
2023-01-03T13:10:35.279Z,26.09
2023-01-03T13:13:02.816Z,26.44
2023-01-03T13:15:37.134Z,26.45
2023-01-03T13:18:19.641Z,25.59
2023-01-03T13:20:50.112Z,25.70
2023-01-03T13:23:32.370Z,25.91
2023-01-03T13:26:05.708Z,25.50
2023-01-03T13:28:35.433Z,25.89
2023-01-03T13:31:36.792Z,28.12
2023-01-03T13:34:32.389Z,29.87
2023-01-03T13:37:08.266Z,31.06
2023-01-03T13:39:50.535Z,31.85
2023-01-03T13:42:23.850Z,32.18
2023-01-03T13:44:51.195Z,32.80
2023-01-03T13:47:33.181Z,32.97
2023-01-03T13:50:00.368Z,33.75
2023-01-03T13:52:37.496Z,35.22
2023-01-03T13:55:04.692Z,34.95
2023-01-03T13:57:37.268Z,35.85
2023-01-03T14:00:19.945Z,34.71
2023-01-03T14:03:11.831Z,35.25
2023-01-03T14:05:57.455Z,35.99
2023-01-03T14:08:41.284Z,35.61
2023-01-03T14:11:29.109Z,35.14
2023-01-03T14:14:21.033Z,35.82
2023-01-03T14:16:51.178Z,35.13
2023-01-03T14:19:34.453Z,35.71
2023-01-03T14:22:28.602Z,36.53
2023-01-03T14:24:57.953Z,36.22
2023-01-03T14:27:44.977Z,36.63
2023-01-03T14:30:28.755Z,36.37
2023-01-03T14:32:55.722Z,36.38
2023-01-03T14:35:33.419Z,38.09
2023-01-03T14:38:06.273Z,39.00
2023-01-03T14:40:33.960Z,37.84
2023-01-03T14:43:04.138Z,38.67
2023-01-03T14:45:30.883Z,38.18
2023-01-03T14:47:57.876Z,38.19
2023-01-03T14:50:30.529Z,38.47
2023-01-03T14:53:02.204Z,37.69
2023-01-03T14:55:30.771Z,36.91
2023-01-03T14:57:58.613Z,37.62
2023-01-03T15:00:33.388Z,37.52
2023-01-03T15:03:02.542Z,38.32
2023-01-03T15:05:40.953Z,36.72
2023-01-03T15:08:15.069Z,38.18
2023-01-03T15:10:41.957Z,36.63
2023-01-03T15:13:29.991Z,37.04
2023-01-03T15:15:59.271Z,38.30
2023-01-03T15:18:30.561Z,38.34
2023-01-03T15:20:59.211Z,37.98
2023-01-03T15:23:35.664Z,38.63
2023-01-03T15:26:02.512Z,38.83
2023-01-03T15:28:32.079Z,38.11
2023-01-03T15:31:14.227Z,39.02
2023-01-03T15:33:41.962Z,39.31
2023-01-03T15:36:18.715Z,38.91
2023-01-03T15:38:47.562Z,38.04
2023-01-03T15:41:47.391Z,38.97
2023-01-03T15:44:19.109Z,38.36
2023-01-03T15:46:48.855Z,39.62
2023-01-03T15:49:19.977Z,39.91
2023-01-03T15:51:48.262Z,39.00
2023-01-03T15:54:18.096Z,39.33
2023-01-03T15:57:04.648Z,38.73
2023-01-03T15:59:39.655Z,39.83
2023-01-03T16:02:18.200Z,39.08
2023-01-03T16:04:46.700Z,39.27
2023-01-03T16:07:14.249Z,39.64
2023-01-03T16:09:41.658Z,40.32
2023-01-03T16:12:19.625Z,39.51
2023-01-03T16:14:51.541Z,39.76
2023-01-03T16:17:25.345Z,41.24
2023-01-03T16:19:53.244Z,41.32
2023-01-03T16:22:37.639Z,41.29
2023-01-03T16:25:06.506Z,41.52
2023-01-03T16:27:33.634Z,41.60
2023-01-03T16:30:00.306Z,42.81
2023-01-03T16:32:29.989Z,42.11
2023-01-03T16:35:15.939Z,41.62
2023-01-03T16:37:43.401Z,42.53
2023-01-03T16:40:15.530Z,41.87
2023-01-03T16:42:42.406Z,42.01
2023-01-03T16:45:09.712Z,41.75
2023-01-03T16:47:36.933Z,44.80
2023-01-03T16:50:22.585Z,42.04
2023-01-03T16:52:55.762Z,41.49
2023-01-03T16:55:28.576Z,41.45
2023-01-03T16:57:56.692Z,40.98
2023-01-03T17:00:26.260Z,40.76
2023-01-03T17:02:55.924Z,40.98
2023-01-03T17:05:23.639Z,40.15
2023-01-03T17:07:53.724Z,40.17
2023-01-03T17:10:26.483Z,40.30
2023-01-03T17:12:54.602Z,39.93
2023-01-03T17:15:21.799Z,40.55
2023-01-03T17:17:48.803Z,41.18
2023-01-03T17:20:17.512Z,40.79
2023-01-03T17:22:51.616Z,42.58
2023-01-03T17:25:18.636Z,41.63
2023-01-03T17:27:51.752Z,41.21
2023-01-03T17:30:21.015Z,41.54
2023-01-03T17:32:49.026Z,41.82
2023-01-03T17:35:16.708Z,41.64
2023-01-03T17:38:13.988Z,42.97
2023-01-03T17:40:34.202Z,43.34
2023-01-03T17:43:02.364Z,42.91
2023-01-03T17:45:48.251Z,43.03
2023-01-03T17:48:33.289Z,42.52
2023-01-03T17:51:01.628Z,41.97
2023-01-03T17:53:29.535Z,41.24
2023-01-03T17:55:56.708Z,42.22
2023-01-03T17:58:29.296Z,41.99
2023-01-03T18:00:55.990Z,41.46
2023-01-03T18:03:23.380Z,41.90
2023-01-03T18:05:50.336Z,42.55
2023-01-03T18:08:19.668Z,42.45
2023-01-03T18:10:47.637Z,41.63
2023-01-03T18:13:22.550Z,43.01
2023-01-03T18:15:50.081Z,43.69
2023-01-03T18:18:18.989Z,42.71
2023-01-03T18:20:46.734Z,42.60
2023-01-03T18:23:17.683Z,42.40
2023-01-03T18:25:45.757Z,41.64
2023-01-03T18:28:16.591Z,42.51
2023-01-03T18:30:43.603Z,42.61
2023-01-03T18:33:10.555Z,43.13
2023-01-03T18:35:38.400Z,43.38
2023-01-03T18:38:05.833Z,44.24
2023-01-03T18:40:32.852Z,43.85
2023-01-03T18:43:11.313Z,43.27
2023-01-03T18:45:40.041Z,43.78
2023-01-03T18:48:07.470Z,43.38
2023-01-03T18:50:35.361Z,43.70
2023-01-03T18:53:04.413Z,43.14
2023-01-03T18:55:34.949Z,43.59
2023-01-03T18:58:14.931Z,44.16
2023-01-03T19:00:41.790Z,43.80
2023-01-03T19:03:29.429Z,44.12
2023-01-03T19:05:59.064Z,45.68
2023-01-03T19:08:27.781Z,45.56
2023-01-03T19:10:54.803Z,45.96
2023-01-03T19:13:31.181Z,46.42
2023-01-03T19:15:58.321Z,46.12
2023-01-03T19:18:25.039Z,46.33
2023-01-03T19:20:52.313Z,46.01
2023-01-03T19:23:25.299Z,44.96
2023-01-03T19:25:53.040Z,45.61
2023-01-03T19:28:23.846Z,46.13
2023-01-03T19:30:51.033Z,45.32
2023-01-03T19:33:19.555Z,44.49
2023-01-03T19:35:46.887Z,45.00
2023-01-03T19:38:13.720Z,45.13
2023-01-03T19:40:45.196Z,45.18
2023-01-03T19:43:20.381Z,46.21
2023-01-03T19:45:47.592Z,45.62
2023-01-03T19:48:22.927Z,45.01
2023-01-03T19:50:51.219Z,44.80
2023-01-03T19:53:18.183Z,45.93
2023-01-03T19:55:51.937Z,45.86
2023-01-03T19:58:23.991Z,45.67
2023-01-03T20:00:52.053Z,45.79
2023-01-03T20:03:39.368Z,45.63
2023-01-03T20:06:11.056Z,45.83
2023-01-03T20:08:37.916Z,45.75
2023-01-03T20:11:05.700Z,46.24
2023-01-03T20:13:33.429Z,45.45
2023-01-03T20:16:01.984Z,44.65
2023-01-03T20:18:34.019Z,45.41
2023-01-03T20:21:10.057Z,44.67
2023-01-03T20:23:41.004Z,44.45
2023-01-03T20:26:20.112Z,44.65
2023-01-03T20:28:47.293Z,45.40
2023-01-03T20:31:20.117Z,44.37
2023-01-03T20:33:48.506Z,44.90
2023-01-03T20:36:23.119Z,44.42
2023-01-03T20:38:53.139Z,44.58
2023-01-03T20:41:20.081Z,44.80
2023-01-03T20:43:48.932Z,44.31
2023-01-03T20:46:21.373Z,43.46
2023-01-03T20:49:02.261Z,43.08
2023-01-03T20:51:29.862Z,43.34
2023-01-03T20:53:56.607Z,42.37
2023-01-03T20:56:25.745Z,43.71
2023-01-03T20:58:52.585Z,43.91
2023-01-03T21:01:19.589Z,43.30
2023-01-03T21:03:46.346Z,43.59
2023-01-03T21:06:17.842Z,44.31
2023-01-03T21:08:58.020Z,43.89
2023-01-03T21:11:30.391Z,43.79
2023-01-03T21:13:59.336Z,44.16
2023-01-03T21:16:32.688Z,44.32
2023-01-03T21:19:21.965Z,43.86
2023-01-03T21:21:51.400Z,44.00
2023-01-03T21:24:19.826Z,45.02
2023-01-03T21:26:46.796Z,44.24
2023-01-03T21:29:14.066Z,44.67
2023-01-03T21:31:42.760Z,44.00
2023-01-03T21:34:21.385Z,44.30
2023-01-03T21:36:48.679Z,43.87
2023-01-03T21:39:15.874Z,44.85
2023-01-03T21:42:01.322Z,44.72
2023-01-03T21:44:28.162Z,44.39
2023-01-03T21:46:54.928Z,44.78
2023-01-03T21:49:21.664Z,45.03
2023-01-03T21:51:48.553Z,45.01
2023-01-03T21:54:15.251Z,44.51
2023-01-03T21:56:46.318Z,45.02
2023-01-03T21:59:15.397Z,46.02
2023-01-03T22:02:05.107Z,45.37
2023-01-03T22:04:33.575Z,45.07
2023-01-03T22:07:01.397Z,46.04
2023-01-03T22:09:48.573Z,45.06
2023-01-03T22:12:16.437Z,49.03
2023-01-03T22:14:45.191Z,50.67
2023-01-03T22:17:12.196Z,51.31
2023-01-03T22:19:38.941Z,51.59
2023-01-03T22:22:05.912Z,52.04
2023-01-03T22:24:32.821Z,51.34
2023-01-03T22:26:59.734Z,51.33
2023-01-03T22:29:26.418Z,51.34
2023-01-03T22:31:53.265Z,51.56
2023-01-03T22:34:20.060Z,52.21
2023-01-03T22:36:46.845Z,51.37
2023-01-03T22:39:13.702Z,51.40
2023-01-03T22:41:40.510Z,51.07
2023-01-03T22:44:07.322Z,51.57
2023-01-03T22:46:34.021Z,51.87
2023-01-03T22:49:00.977Z,51.58
2023-01-03T22:51:27.789Z,52.32
2023-01-03T22:53:54.637Z,52.26
2023-01-03T22:56:21.354Z,52.44
2023-01-03T22:58:48.139Z,52.47
2023-01-03T23:01:17.961Z,52.68
2023-01-03T23:03:46.471Z,52.47
2023-01-03T23:06:16.183Z,48.88
2023-01-03T23:08:43.546Z,48.77
2023-01-03T23:11:48.300Z,52.29
2023-01-03T23:14:19.865Z,53.01
2023-01-03T23:16:48.060Z,52.96
2023-01-03T23:19:16.557Z,53.21
2023-01-03T23:21:45.448Z,53.66
2023-01-03T23:24:18.653Z,54.07
2023-01-03T23:26:45.781Z,53.35
2023-01-03T23:29:14.288Z,53.13
2023-01-03T23:31:42.276Z,53.22
2023-01-03T23:34:10.608Z,53.11
2023-01-03T23:36:37.514Z,52.71
2023-01-03T23:39:05.175Z,53.11
2023-01-03T23:41:31.919Z,53.35
2023-01-03T23:43:58.761Z,53.29
2023-01-03T23:46:25.519Z,52.91
2023-01-03T23:48:58.556Z,53.05
2023-01-03T23:51:25.843Z,52.90
2023-01-03T23:53:53.569Z,52.97
2023-01-03T23:56:22.822Z,52.77
2023-01-03T23:58:50.896Z,52.45
